createdAt,value
2017-11-27T00:00:57.250Z,2.13
2017-11-27T00:03:23.509Z,2.17
2017-11-27T00:05:49.678Z,2.17
2017-11-27T00:08:15.863Z,2.16
2017-11-27T00:10:41.970Z,2.19
2017-11-27T00:13:08.164Z,2.15
2017-11-27T00:15:34.539Z,2.20
2017-11-27T00:18:00.714Z,2.16
2017-11-27T00:20:26.845Z,2.16
2017-11-27T00:22:52.981Z,2.06
2017-11-27T00:25:19.105Z,2.11
2017-11-27T00:27:45.238Z,2.20
2017-11-27T00:30:11.593Z,2.28
2017-11-27T00:32:37.845Z,2.27
2017-11-27T00:35:04.414Z,2.21
2017-11-27T00:37:30.657Z,2.22
2017-11-27T00:39:56.867Z,2.21
2017-11-27T00:42:23.092Z,2.23
2017-11-27T00:44:49.249Z,2.22
2017-11-27T00:47:15.405Z,2.24
2017-11-27T00:49:41.564Z,2.29
2017-11-27T00:52:07.664Z,2.24
2017-11-27T00:54:33.895Z,2.23
2017-11-27T00:57:00.115Z,2.23
2017-11-27T00:59:26.360Z,2.21
2017-11-27T01:01:52.558Z,2.21
2017-11-27T01:04:18.759Z,2.21
2017-11-27T01:06:44.973Z,2.21
2017-11-27T01:09:11.058Z,2.21
2017-11-27T01:11:37.258Z,2.23
2017-11-27T01:14:03.439Z,2.22
2017-11-27T01:16:29.630Z,2.21
2017-11-27T01:18:55.713Z,2.20
2017-11-27T01:21:21.837Z,2.21
2017-11-27T01:23:48.186Z,2.18
2017-11-27T01:26:14.350Z,2.16
2017-11-27T01:28:40.493Z,2.21
2017-11-27T01:31:06.716Z,2.21
2017-11-27T01:33:32.901Z,2.26
2017-11-27T01:35:59.100Z,2.23
2017-11-27T01:38:25.266Z,2.26
2017-11-27T01:40:51.419Z,2.19
2017-11-27T01:43:17.562Z,2.21
2017-11-27T01:45:43.743Z,2.21
2017-11-27T01:48:09.844Z,2.23
2017-11-27T01:50:36.417Z,2.22
2017-11-27T01:53:02.568Z,2.20
2017-11-27T01:55:28.699Z,2.16
2017-11-27T01:57:54.900Z,2.18
2017-11-27T02:00:21.111Z,2.19
2017-11-27T02:02:47.291Z,2.17
2017-11-27T02:05:13.771Z,2.17
2017-11-27T02:07:39.991Z,2.17
2017-11-27T02:10:06.274Z,2.19
2017-11-27T02:12:32.469Z,2.20
2017-11-27T02:14:58.582Z,2.21
2017-11-27T02:17:24.947Z,2.20
2017-11-27T02:19:51.057Z,2.22
2017-11-27T02:22:17.267Z,2.24
2017-11-27T02:24:43.481Z,2.25
2017-11-27T02:27:09.685Z,2.22
2017-11-27T02:29:35.817Z,2.25
2017-11-27T02:32:01.897Z,2.25
2017-11-27T02:34:28.010Z,2.22
2017-11-27T02:36:54.139Z,2.23
2017-11-27T02:39:20.271Z,2.22
2017-11-27T02:41:46.489Z,2.25
2017-11-27T02:44:12.696Z,2.26
2017-11-27T02:46:38.815Z,2.27
2017-11-27T02:49:04.990Z,2.27
2017-11-27T02:51:31.116Z,2.27
2017-11-27T02:53:57.256Z,2.25
2017-11-27T02:56:33.357Z,2.24
2017-11-27T02:58:59.446Z,2.24
2017-11-27T03:01:25.586Z,2.25
2017-11-27T03:03:51.826Z,2.27
2017-11-27T03:06:17.969Z,2.28
2017-11-27T03:08:44.253Z,2.29
2017-11-27T03:11:10.486Z,2.29
2017-11-27T03:13:36.675Z,2.30
2017-11-27T03:16:02.889Z,2.31
2017-11-27T03:18:28.983Z,2.29
2017-11-27T03:20:55.044Z,2.30
2017-11-27T03:23:21.246Z,2.32
2017-11-27T03:25:47.437Z,2.31
2017-11-27T03:28:13.617Z,2.31
2017-11-27T03:30:39.754Z,2.29
2017-11-27T03:33:05.946Z,2.33
2017-11-27T03:35:32.165Z,2.37
2017-11-27T03:37:58.342Z,2.35
2017-11-27T03:40:24.450Z,2.36
2017-11-27T03:42:50.605Z,2.34
2017-11-27T03:45:16.730Z,2.35
2017-11-27T03:47:42.869Z,2.38
2017-11-27T03:50:09.018Z,2.41
2017-11-27T03:52:35.366Z,2.41
2017-11-27T03:55:01.509Z,2.41
2017-11-27T03:57:27.670Z,2.44
2017-11-27T03:59:53.806Z,2.44
2017-11-27T04:02:19.938Z,2.43
2017-11-27T04:04:46.413Z,2.42
2017-11-27T04:07:12.513Z,2.42
2017-11-27T04:09:38.632Z,2.42
2017-11-27T04:12:04.787Z,2.42
2017-11-27T04:14:30.864Z,2.45
2017-11-27T04:16:57.010Z,2.44
2017-11-27T04:19:23.146Z,2.43
2017-11-27T04:21:50.557Z,2.44
2017-11-27T04:24:16.680Z,2.41
2017-11-27T04:26:42.778Z,2.41
2017-11-27T04:29:08.916Z,2.39
2017-11-27T04:31:35.029Z,2.44
2017-11-27T04:34:01.214Z,2.45
2017-11-27T04:36:27.249Z,2.43
2017-11-27T04:38:53.427Z,2.39
2017-11-27T04:41:19.549Z,2.39
2017-11-27T04:43:45.692Z,2.41
2017-11-27T04:46:11.820Z,2.40
2017-11-27T04:48:37.909Z,2.43
2017-11-27T04:51:04.009Z,2.42
2017-11-27T04:53:30.122Z,2.43
2017-11-27T04:55:56.222Z,2.45
2017-11-27T04:58:22.317Z,2.47
2017-11-27T05:00:48.785Z,2.46
2017-11-27T05:03:14.915Z,2.48
2017-11-27T05:05:41.050Z,2.51
2017-11-27T05:08:07.196Z,2.48
2017-11-27T05:10:33.303Z,2.47
2017-11-27T05:12:59.541Z,2.44
2017-11-27T05:15:25.754Z,2.42
2017-11-27T05:17:51.926Z,2.42
2017-11-27T05:20:18.030Z,2.39
2017-11-27T05:22:44.177Z,2.36
2017-11-27T05:25:10.270Z,2.37
2017-11-27T05:27:36.327Z,2.37
2017-11-27T05:30:02.468Z,2.32
2017-11-27T05:32:28.579Z,2.32
2017-11-27T05:34:54.694Z,2.36
2017-11-27T05:37:20.854Z,2.33
2017-11-27T05:39:46.994Z,2.36
2017-11-27T05:42:13.093Z,2.35
2017-11-27T05:44:39.273Z,2.37
2017-11-27T05:47:05.393Z,2.36
2017-11-27T05:49:31.516Z,2.39
2017-11-27T05:51:57.686Z,2.37
2017-11-27T05:54:24.175Z,2.34
2017-11-27T05:56:50.320Z,2.35
2017-11-27T05:59:16.457Z,2.40
2017-11-27T06:01:42.528Z,2.41
2017-11-27T06:04:08.592Z,2.41
2017-11-27T06:06:34.733Z,2.31
2017-11-27T06:09:00.801Z,2.42
2017-11-27T06:11:26.952Z,2.39
2017-11-27T06:13:53.041Z,2.41
2017-11-27T06:16:19.198Z,2.44
2017-11-27T06:18:45.297Z,2.44
2017-11-27T06:21:11.449Z,2.41
2017-11-27T06:23:37.620Z,2.44
2017-11-27T06:26:03.747Z,2.44
2017-11-27T06:28:29.907Z,2.45
2017-11-27T06:30:56.370Z,2.44
2017-11-27T06:33:22.686Z,2.45
2017-11-27T06:35:48.885Z,2.44
2017-11-27T06:38:15.114Z,2.39
2017-11-27T06:40:41.181Z,2.39
2017-11-27T06:43:07.285Z,2.42
2017-11-27T06:45:33.417Z,2.42
2017-11-27T06:47:59.502Z,2.42
2017-11-27T06:50:25.689Z,2.42
2017-11-27T06:52:51.795Z,2.40
2017-11-27T06:55:17.919Z,2.41
2017-11-27T06:57:44.085Z,2.43
2017-11-27T07:00:10.198Z,2.43
2017-11-27T07:02:36.424Z,2.46
2017-11-27T07:05:02.974Z,2.45
2017-11-27T07:07:29.182Z,2.43
2017-11-27T07:09:55.302Z,2.49
2017-11-27T07:12:21.453Z,2.47
2017-11-27T07:14:47.610Z,2.49
2017-11-27T07:17:13.742Z,2.50
2017-11-27T07:19:39.866Z,2.48
2017-11-27T07:22:05.957Z,2.52
2017-11-27T07:24:32.098Z,2.54
2017-11-27T07:26:58.800Z,2.51
2017-11-27T07:29:24.847Z,2.50
2017-11-27T07:31:50.966Z,2.49
2017-11-27T07:34:17.102Z,2.51
2017-11-27T07:36:43.244Z,2.53
2017-11-27T07:39:15.921Z,2.48
2017-11-27T07:41:41.970Z,2.47
2017-11-27T07:44:08.102Z,2.49
2017-11-27T07:46:34.234Z,2.43
2017-11-27T07:49:00.643Z,2.45
2017-11-27T07:51:26.746Z,2.45
2017-11-27T07:53:52.847Z,2.49
2017-11-27T07:56:18.971Z,2.42
2017-11-27T07:58:45.061Z,2.53
2017-11-27T08:01:11.181Z,2.57
2017-11-27T08:03:37.297Z,2.56
2017-11-27T08:06:03.492Z,2.58
2017-11-27T08:08:29.684Z,2.63
2017-11-27T08:10:55.817Z,2.60
2017-11-27T08:13:21.959Z,2.63
2017-11-27T08:15:48.098Z,2.55
2017-11-27T08:18:14.258Z,2.58
2017-11-27T08:20:40.363Z,2.58
2017-11-27T08:23:06.540Z,2.60
2017-11-27T08:25:32.654Z,2.59
2017-11-27T08:27:58.794Z,2.61
2017-11-27T08:30:24.927Z,2.57
2017-11-27T08:32:51.086Z,2.58
2017-11-27T08:35:17.204Z,2.64
2017-11-27T08:37:43.325Z,2.62
2017-11-27T08:40:09.566Z,2.65
2017-11-27T08:42:35.748Z,2.70
2017-11-27T08:45:02.261Z,2.71
2017-11-27T08:47:28.369Z,2.69
2017-11-27T08:49:54.506Z,2.67
2017-11-27T08:52:20.645Z,2.69
2017-11-27T08:54:46.790Z,2.66
2017-11-27T08:57:12.908Z,2.72
2017-11-27T08:59:39.021Z,2.75
2017-11-27T09:02:05.137Z,2.78
2017-11-27T09:04:31.253Z,2.69
2017-11-27T09:06:57.406Z,2.74
2017-11-27T09:09:23.530Z,2.83
2017-11-27T09:11:49.707Z,2.81
2017-11-27T09:14:15.785Z,2.88
2017-11-27T09:16:41.898Z,2.94
2017-11-27T09:19:08.036Z,2.91
2017-11-27T09:21:34.130Z,2.82
2017-11-27T09:24:00.210Z,2.84
2017-11-27T09:26:26.388Z,2.86
2017-11-27T09:28:52.485Z,2.86
2017-11-27T09:31:18.848Z,2.77
2017-11-27T09:33:44.977Z,2.74
2017-11-27T09:36:11.223Z,2.72
2017-11-27T09:38:37.328Z,2.71
2017-11-27T09:41:03.449Z,2.65
2017-11-27T09:43:29.579Z,2.69
2017-11-27T09:45:55.698Z,2.75
2017-11-27T09:48:21.869Z,2.84
2017-11-27T09:50:47.953Z,2.89
2017-11-27T09:53:14.138Z,2.82
2017-11-27T09:55:40.321Z,2.79
2017-11-27T09:58:06.436Z,2.84
2017-11-27T10:00:32.506Z,2.81
2017-11-27T10:02:58.626Z,2.85
2017-11-27T10:05:24.749Z,2.79
2017-11-27T10:07:50.833Z,2.76
2017-11-27T10:10:16.974Z,2.79
2017-11-27T10:12:43.090Z,2.75
2017-11-27T10:15:09.213Z,2.78
2017-11-27T10:17:35.322Z,2.78
2017-11-27T10:20:01.477Z,2.78
2017-11-27T10:22:27.584Z,2.83
2017-11-27T10:24:53.775Z,2.80
2017-11-27T10:27:19.904Z,2.85
2017-11-27T10:29:46.053Z,2.87
2017-11-27T10:32:12.194Z,2.87
2017-11-27T10:34:38.318Z,2.86
2017-11-27T10:37:04.464Z,2.95
2017-11-27T10:39:30.586Z,2.90
2017-11-27T10:41:56.692Z,2.98
2017-11-27T10:44:22.871Z,2.99
2017-11-27T10:46:49.021Z,3.04
2017-11-27T10:49:17.100Z,3.18
2017-11-27T10:51:43.234Z,3.28
2017-11-27T10:54:09.442Z,3.35
2017-11-27T10:56:35.603Z,3.39
2017-11-27T10:59:01.691Z,3.36
2017-11-27T11:01:27.834Z,3.34
2017-11-27T11:03:53.948Z,3.21
2017-11-27T11:06:20.127Z,3.22
2017-11-27T11:08:46.217Z,3.24
2017-11-27T11:11:12.423Z,3.18
2017-11-27T11:13:38.557Z,3.18
2017-11-27T11:16:04.656Z,3.20
2017-11-27T11:18:30.813Z,3.14
2017-11-27T11:20:56.896Z,3.08
2017-11-27T11:23:23.047Z,3.11
2017-11-27T11:25:49.136Z,3.25
2017-11-27T11:28:15.328Z,3.27
2017-11-27T11:30:41.497Z,3.42
2017-11-27T11:33:07.630Z,3.54
2017-11-27T11:35:33.742Z,3.54
2017-11-27T11:37:59.873Z,3.46
2017-11-27T11:40:25.977Z,3.41
2017-11-27T11:42:52.069Z,3.36
2017-11-27T11:45:18.148Z,3.34
2017-11-27T11:47:44.270Z,3.31
2017-11-27T11:50:10.371Z,3.36
2017-11-27T11:52:36.561Z,3.43
2017-11-27T11:55:02.921Z,3.52
2017-11-27T11:57:29.014Z,3.45
2017-11-27T11:59:55.089Z,3.47
2017-11-27T12:02:21.230Z,3.42
2017-11-27T12:04:47.446Z,3.53
2017-11-27T12:07:13.542Z,3.58
2017-11-27T12:09:39.662Z,3.57
2017-11-27T12:12:05.794Z,3.61
2017-11-27T12:14:31.890Z,3.59
2017-11-27T12:16:58.024Z,3.56
2017-11-27T12:19:24.173Z,3.55
2017-11-27T12:21:50.314Z,3.68
2017-11-27T12:24:16.381Z,3.75
2017-11-27T12:26:42.518Z,3.77
2017-11-27T12:29:08.758Z,3.81
2017-11-27T12:31:34.903Z,3.84
2017-11-27T12:34:01.041Z,3.85
2017-11-27T12:36:27.165Z,3.91
2017-11-27T12:38:53.349Z,4.00
2017-11-27T12:41:19.437Z,4.02
2017-11-27T12:43:45.521Z,3.97
2017-11-27T12:46:11.674Z,3.90
2017-11-27T12:48:37.845Z,3.84
2017-11-27T12:51:04.025Z,3.85
2017-11-27T12:53:30.170Z,3.90
2017-11-27T12:55:56.316Z,3.86
2017-11-27T12:58:22.442Z,3.86
2017-11-27T13:00:48.549Z,3.87
2017-11-27T13:03:14.666Z,3.88
2017-11-27T13:05:40.793Z,3.91
2017-11-27T13:08:06.889Z,3.93
2017-11-27T13:10:32.967Z,3.97
2017-11-27T13:12:59.062Z,3.97
2017-11-27T13:15:25.121Z,4.01
2017-11-27T13:17:51.243Z,4.01
2017-11-27T13:20:17.366Z,4.04
2017-11-27T13:22:43.586Z,3.93
2017-11-27T13:25:09.698Z,3.91
2017-11-27T13:27:35.829Z,3.98
2017-11-27T13:30:01.985Z,4.06
2017-11-27T13:32:28.145Z,4.07
2017-11-27T13:34:54.250Z,4.08
2017-11-27T13:37:20.361Z,4.02
2017-11-27T13:39:46.485Z,4.09
2017-11-27T13:42:12.613Z,4.14
2017-11-27T13:44:38.786Z,4.17
2017-11-27T13:47:04.894Z,4.12
2017-11-27T13:49:31.029Z,4.15
2017-11-27T13:51:57.805Z,4.13
2017-11-27T13:54:24.138Z,4.13
2017-11-27T13:56:50.224Z,4.16
2017-11-27T13:59:16.441Z,4.10
2017-11-27T14:01:42.533Z,4.07
2017-11-27T14:04:08.630Z,4.09
2017-11-27T14:06:34.791Z,4.11
2017-11-27T14:09:00.954Z,4.00
2017-11-27T14:11:27.082Z,3.97
2017-11-27T14:13:53.238Z,3.96
2017-11-27T14:16:19.386Z,3.98
2017-11-27T14:18:45.575Z,3.96
2017-11-27T14:21:11.718Z,3.90
2017-11-27T14:23:37.882Z,3.92
2017-11-27T14:26:03.987Z,3.81
2017-11-27T14:28:31.285Z,3.72
2017-11-27T14:30:57.347Z,3.65
2017-11-27T14:33:23.522Z,3.64
2017-11-27T14:35:49.614Z,3.64
2017-11-27T14:38:15.809Z,3.58
2017-11-27T14:40:41.913Z,3.60
2017-11-27T14:43:07.944Z,3.57
2017-11-27T14:45:34.037Z,3.56
2017-11-27T14:48:00.375Z,3.54
2017-11-27T14:50:26.490Z,3.57
2017-11-27T14:52:52.545Z,3.53
2017-11-27T14:55:19.004Z,3.51
2017-11-27T14:57:45.166Z,3.44
2017-11-27T15:00:11.222Z,3.42
2017-11-27T15:02:37.355Z,3.39
2017-11-27T15:05:04.285Z,3.39
2017-11-27T15:07:30.400Z,3.38
2017-11-27T15:09:56.488Z,3.31
2017-11-27T15:12:22.683Z,3.33
2017-11-27T15:14:48.771Z,3.23
2017-11-27T15:17:14.871Z,3.16
2017-11-27T15:19:40.999Z,3.19
2017-11-27T15:22:07.046Z,3.16
2017-11-27T15:24:33.857Z,3.09
2017-11-27T15:26:59.957Z,3.05
2017-11-27T15:29:26.099Z,3.02
2017-11-27T15:31:52.222Z,3.06
2017-11-27T15:34:18.421Z,3.02
2017-11-27T15:36:44.522Z,2.98
2017-11-27T15:39:10.691Z,2.95
2017-11-27T15:41:36.858Z,2.88
2017-11-27T15:44:02.973Z,2.83
2017-11-27T15:46:29.075Z,2.81
2017-11-27T15:48:55.154Z,2.82
2017-11-27T15:51:21.272Z,2.82
2017-11-27T15:53:47.435Z,2.83
2017-11-27T15:56:13.582Z,2.87
2017-11-27T15:58:39.741Z,2.79
2017-11-27T16:01:05.822Z,2.75
2017-11-27T16:03:32.083Z,2.78
2017-11-27T16:05:58.158Z,2.77
2017-11-27T16:08:24.286Z,2.79
2017-11-27T16:10:50.369Z,2.76
2017-11-27T16:13:16.507Z,2.77
2017-11-27T16:15:42.705Z,2.79
2017-11-27T16:18:08.794Z,2.75
2017-11-27T16:20:34.873Z,2.78
2017-11-27T16:23:01.017Z,2.74
2017-11-27T16:25:27.122Z,2.78
2017-11-27T16:27:53.247Z,2.75
2017-11-27T16:30:19.631Z,2.73
2017-11-27T16:32:45.741Z,2.73
2017-11-27T16:35:11.847Z,2.79
2017-11-27T16:37:37.868Z,2.81
2017-11-27T16:40:04.065Z,2.80
2017-11-27T16:42:30.261Z,2.81
2017-11-27T16:44:56.400Z,2.81
2017-11-27T16:47:22.562Z,2.83
2017-11-27T16:49:48.681Z,2.87
2017-11-27T16:52:14.891Z,2.86
2017-11-27T16:54:40.983Z,2.85
2017-11-27T16:57:07.201Z,2.91
2017-11-27T16:59:33.301Z,2.86
2017-11-27T17:02:00.403Z,2.84
2017-11-27T17:04:26.577Z,2.88
2017-11-27T17:06:52.726Z,2.89
2017-11-27T17:09:18.874Z,2.86
2017-11-27T17:11:44.964Z,2.91
2017-11-27T17:14:11.191Z,2.92
2017-11-27T17:16:38.245Z,2.90
2017-11-27T17:19:04.380Z,2.90
2017-11-27T17:21:30.499Z,2.94
2017-11-27T17:23:56.730Z,2.94
2017-11-27T17:26:22.827Z,2.90
2017-11-27T17:28:48.995Z,2.98
2017-11-27T17:31:15.137Z,3.01
2017-11-27T17:33:41.226Z,2.97
2017-11-27T17:36:07.388Z,2.98
2017-11-27T17:38:33.537Z,3.00
2017-11-27T17:40:59.980Z,3.02
2017-11-27T17:43:26.086Z,3.04
2017-11-27T17:45:52.271Z,3.02
2017-11-27T17:48:18.481Z,3.07
2017-11-27T17:50:45.120Z,3.05
2017-11-27T17:53:11.297Z,3.01
2017-11-27T17:55:37.456Z,3.05
2017-11-27T17:58:03.673Z,3.00
2017-11-27T18:00:29.822Z,2.96
2017-11-27T18:02:55.982Z,3.02
2017-11-27T18:05:22.087Z,2.99
2017-11-27T18:07:48.247Z,3.05
2017-11-27T18:10:14.420Z,3.03
2017-11-27T18:12:40.635Z,3.04
2017-11-27T18:15:06.880Z,3.04
2017-11-27T18:17:32.998Z,3.02
2017-11-27T18:19:59.115Z,3.04
2017-11-27T18:22:25.235Z,3.02
2017-11-27T18:24:51.366Z,3.04
2017-11-27T18:27:17.550Z,3.03
2017-11-27T18:29:43.670Z,2.98
2017-11-27T18:32:09.802Z,2.98
2017-11-27T18:34:35.988Z,3.00
2017-11-27T18:37:02.160Z,2.98
2017-11-27T18:39:28.356Z,2.96
2017-11-27T18:41:54.454Z,2.95
2017-11-27T18:44:20.568Z,2.96
2017-11-27T18:46:46.854Z,2.96
2017-11-27T18:49:13.006Z,3.00
2017-11-27T18:51:39.190Z,2.98
2017-11-27T18:54:05.336Z,2.99
2017-11-27T18:56:31.501Z,2.98
2017-11-27T18:58:57.668Z,2.97
2017-11-27T19:01:23.801Z,2.97
2017-11-27T19:03:49.897Z,2.93
2017-11-27T19:06:16.058Z,2.87
2017-11-27T19:08:42.261Z,2.89
2017-11-27T19:11:08.376Z,2.88
2017-11-27T19:13:34.488Z,2.91
2017-11-27T19:16:00.565Z,2.93
2017-11-27T19:18:26.667Z,2.95
2017-11-27T19:20:52.762Z,3.01
2017-11-27T19:23:18.879Z,2.99
2017-11-27T19:25:44.984Z,2.97
2017-11-27T19:28:11.102Z,2.98
2017-11-27T19:30:37.410Z,2.93
2017-11-27T19:33:03.526Z,2.97
2017-11-27T19:35:29.631Z,3.01
2017-11-27T19:37:55.840Z,2.97
2017-11-27T19:40:22.172Z,2.88
2017-11-27T19:42:48.504Z,2.93
2017-11-27T19:45:14.813Z,2.93
2017-11-27T19:47:41.053Z,2.92
2017-11-27T19:50:07.209Z,2.87
2017-11-27T19:52:33.375Z,2.92
2017-11-27T19:54:59.527Z,2.93
2017-11-27T19:57:25.762Z,2.96
2017-11-27T19:59:51.969Z,2.97
2017-11-27T20:02:18.151Z,3.03
2017-11-27T20:04:44.341Z,2.98
2017-11-27T20:07:10.467Z,2.96
2017-11-27T20:09:36.674Z,2.96
2017-11-27T20:12:02.949Z,2.97
2017-11-27T20:14:29.094Z,2.96
2017-11-27T20:16:55.335Z,2.95
2017-11-27T20:19:21.493Z,2.91
2017-11-27T20:21:47.826Z,2.89
2017-11-27T20:24:14.096Z,2.90
2017-11-27T20:26:40.325Z,2.89
2017-11-27T20:29:06.503Z,2.88
2017-11-27T20:31:32.789Z,2.83
2017-11-27T20:33:58.975Z,2.86
2017-11-27T20:36:25.223Z,2.81
2017-11-27T20:38:51.409Z,2.80
2017-11-27T20:41:17.645Z,2.82
2017-11-27T20:43:43.825Z,2.86
2017-11-27T20:46:10.139Z,2.86
2017-11-27T20:48:36.359Z,2.82
2017-11-27T20:51:02.627Z,2.87
2017-11-27T20:53:28.817Z,2.84
2017-11-27T20:55:55.001Z,2.80
2017-11-27T20:58:21.214Z,2.88
2017-11-27T21:00:47.425Z,2.89
2017-11-27T21:03:14.594Z,2.89
2017-11-27T21:05:40.665Z,2.89
2017-11-27T21:08:06.841Z,2.91
2017-11-27T21:10:32.910Z,2.91
2017-11-27T21:12:59.142Z,2.93
2017-11-27T21:15:25.234Z,2.91
2017-11-27T21:17:51.403Z,2.94
2017-11-27T21:20:17.544Z,2.90
2017-11-27T21:22:43.683Z,2.98
2017-11-27T21:25:09.850Z,2.94
2017-11-27T21:27:36.100Z,2.92
2017-11-27T21:30:02.820Z,2.94
2017-11-27T21:32:29.369Z,2.90
2017-11-27T21:34:55.502Z,2.93
2017-11-27T21:37:22.442Z,2.93
2017-11-27T21:39:48.591Z,2.91
2017-11-27T21:42:14.777Z,2.90
2017-11-27T21:44:40.978Z,2.96
2017-11-27T21:47:07.101Z,2.94
2017-11-27T21:49:33.225Z,2.95
2017-11-27T21:51:59.454Z,2.97
2017-11-27T21:54:25.698Z,2.95
2017-11-27T21:56:51.864Z,3.01
2017-11-27T21:59:18.270Z,3.01
2017-11-27T22:01:44.420Z,3.03
2017-11-27T22:04:10.839Z,3.00
2017-11-27T22:06:37.021Z,2.97
2017-11-27T22:09:03.256Z,3.06
2017-11-27T22:11:29.496Z,3.03
2017-11-27T22:13:55.661Z,3.05
2017-11-27T22:16:21.758Z,3.08
2017-11-27T22:18:47.921Z,3.09
2017-11-27T22:21:14.051Z,3.15
2017-11-27T22:23:40.253Z,3.13
2017-11-27T22:26:06.330Z,3.13
2017-11-27T22:28:32.419Z,3.13
2017-11-27T22:30:58.525Z,3.16
2017-11-27T22:33:24.761Z,3.12
2017-11-27T22:35:51.092Z,3.13
2017-11-27T22:38:17.245Z,3.15
2017-11-27T22:40:43.302Z,3.08
2017-11-27T22:43:09.416Z,3.14
2017-11-27T22:45:35.497Z,3.13
2017-11-27T22:48:01.889Z,3.17
2017-11-27T22:50:28.362Z,3.17
2017-11-27T22:52:54.518Z,3.14
2017-11-27T22:55:20.706Z,3.12
2017-11-27T22:57:46.803Z,3.11
2017-11-27T23:00:12.946Z,3.13
2017-11-27T23:02:39.183Z,3.12
2017-11-27T23:05:05.313Z,3.13
2017-11-27T23:07:31.489Z,3.13
2017-11-27T23:09:57.669Z,3.12
2017-11-27T23:12:23.827Z,3.12
2017-11-27T23:14:50.001Z,3.15
2017-11-27T23:17:16.248Z,3.10
2017-11-27T23:19:42.350Z,3.13
2017-11-27T23:22:08.506Z,3.08
2017-11-27T23:24:34.631Z,3.07
2017-11-27T23:27:00.833Z,3.08
2017-11-27T23:29:27.013Z,3.06
2017-11-27T23:31:53.213Z,3.07
2017-11-27T23:34:19.383Z,3.02
2017-11-27T23:36:45.538Z,2.96
2017-11-27T23:39:11.650Z,2.94
2017-11-27T23:41:37.794Z,3.00
2017-11-27T23:44:03.969Z,2.96
2017-11-27T23:46:30.078Z,2.96
2017-11-27T23:48:56.259Z,2.97
2017-11-27T23:51:22.358Z,2.99
2017-11-27T23:53:48.508Z,2.97
2017-11-27T23:56:14.589Z,2.95
2017-11-27T23:58:40.742Z,2.98
